Stunt Ranch Reserve, Santa Monica Mtns, California Weather observations

Data are for 10 minute period ending at time listed.
 Day   Time   Solar   Ave.   Ave.  Ave.  Vector  Max.   Baro.   Total    
  of    of     Rad.   Air    Rel.  Wind   Wind   Wind  Press.  Precip.   
Year   Day            Temp.  Hum.  Speed  Dir.   Gust                    
2014   (PST)  Kw/m2    F      %     mph   deg.    mph    mb.     in.     
-------------------------------------------------------------------------
 302    9:10   0.48   75.1    26    0.7   301     1.7   970.9    0.00 
 302    9:20   0.51   75.8    26    2.0   278     3.0   970.9    0.00 
 302    9:30   0.53   77.5    24    2.5   277     3.9   970.9    0.00 
 302    9:40   0.55   80.0    24    2.4   273     3.9   970.9    0.00 
 302    9:50   0.57   81.2    25    3.9   276     6.9   970.9    0.00 
 302   10:00   0.59   80.8    26    3.6   270     6.0   970.9    0.00 
 302   10:10   0.61   82.1    23    2.4   273     4.4   970.9    0.00 
 302   10:20   0.62   84.0    22    3.5   274     5.0   970.9    0.00 
 302   10:30   0.64   85.4    22    4.3   277     6.9   971.2    0.00 
 302   10:40   0.65   85.5    21    3.5   278     5.8   971.2    0.00 
 302   10:50   0.66   85.8    21    4.3   269     6.5   970.9    0.00 
 302   11:00   0.67   86.3    20    3.9   272     6.8   970.9    0.00 
 302   11:10   0.67   86.2    20    2.9   276     6.1   970.9    0.00 
 302   11:20   0.68   86.8    20    2.8   288     6.6   970.9    0.00 
 302   11:30   0.69   88.3    19    3.4   281     6.6   970.9    0.00 
 302   11:40   0.69   88.5    20    3.3   283     8.8   970.9    0.00 
 302   11:50   0.69   90.3    20    3.4   275     8.0   970.5    0.00 
 302   12:00   0.69   90.2    20    3.7   282     7.0   970.5    0.00 
 302   12:10   0.68   89.1    19    3.5   280     7.8   970.2    0.00 
 302   12:20   0.67   89.4    19    2.7   284     7.4   970.2    0.00 
 302   12:30   0.67   90.8    17    3.3   287     6.4   970.2    0.00 
 302   12:40   0.66   90.8    16    3.5   281     8.3   969.9    0.00 
 302   12:50   0.61   91.1    15    3.8   282     9.1   969.9    0.00 
 302   13:00   0.64   91.2    15    3.8   284     8.6   969.5    0.00 
 302   13:10   0.62   91.4    15    4.3   280    10.0   969.5    0.00 
 302   13:20   0.61   91.3    15    3.3   297     8.8   969.2    0.00 
 302   13:30   0.59   90.8    15    3.0   295     7.5   969.2    0.00 
 302   13:40   0.57   90.6    15    2.5   297     8.4   969.2    0.00 
 302   13:50   0.55   90.7    15    1.8   276     7.5   969.2    0.00 
 302   14:00   0.53   88.1    17    1.5   314     6.6   969.2    0.00 
 302   14:10   0.51   88.8    16    2.3   298     8.0   969.2    0.00 
 302   14:20   0.48   88.8    16    1.9   293     7.2   969.2    0.00 
 302   14:30   0.45   88.6    16    2.0   297     8.8   969.2    0.00 
 302   14:40   0.42   86.0    18    2.0   118     5.5   969.2    0.00 
 302   14:50   0.39   86.5    17    3.3   272     8.0   969.2    0.00 
 302   15:00   0.36   86.2    16    1.8   276     6.6   969.2    0.00 
 302   15:10   0.33   86.1    16    1.8   290     5.6   969.2    0.00 
 302   15:20   0.30   85.6    16    3.4   269    10.2   969.2    0.00 
 302   15:30   0.27   84.7    16    3.4   256     7.3   969.2    0.00 
 302   15:40   0.24   84.3    17    2.3   275     7.6   969.2    0.00 
 302   15:50   0.21   83.5    16    6.2   258    10.9   969.2    0.00 
 302   16:00   0.18   82.6    17    6.0   261    11.6   969.2    0.00 
 302   16:10   0.15   81.6    17    6.0   255    10.5   968.8    0.00 
 302   16:20   0.12   80.5    18    1.4   268     4.8   968.5    0.00 
 302   16:30   0.04   78.5    20    2.8   271     6.0   968.5    0.00 
 302   16:40   0.02   76.8    23    2.2   281     6.9   968.2    0.00 
 302   16:50   0.01   75.3    28    1.4   306     5.4   968.2    0.00 
 302   17:00   0.01   73.9    34    1.7   290     6.4   968.5    0.00 
 302   17:10   0.00   72.4    37    2.3   270     5.3   968.5    0.00 
 302   17:20   0.00   71.5    39    1.8   255     4.1   968.8    0.00 
 302   17:30   0.00   70.8    40    2.7   239     4.7   968.8    0.00 
 302   17:40   0.00   70.3    40    3.0   235     4.8   969.2    0.00 
 302   17:50   0.00   69.3    40    3.2   230     4.5   969.2    0.00 
 302   18:00   0.00   68.9    41    2.9   224     4.1   969.2    0.00 
 302   18:10   0.00   68.2    41    1.8   217     3.0   969.5    0.00 
 302   18:20   0.00   67.5    42    2.3   168     3.5   969.5    0.00 
 302   18:30   0.00   67.3    41    3.1   154     4.6   969.2    0.00 
 302   18:40   0.00   67.5    41    2.6   170     4.5   969.2    0.00 
 302   18:50   0.00   67.9    39    2.8   181     4.5   969.5    0.00 
 302   19:00   0.00   68.5    36    3.8   194     5.0   969.5    0.00 
 302   19:10   0.00   68.5    33    3.2   190     5.0   969.5    0.00 
 302   19:20   0.00   68.9    29    2.6   224     3.7   969.2    0.00 
 302   19:30   0.00   69.2    26    1.9   210     3.1   969.2    0.00 
 302   19:40   0.00   69.5    25    1.8   231     2.9   969.2    0.00 
 302   19:50   0.00   69.5    25    0.0   322     0.9   969.2    0.00 
 302   20:00   0.00   70.0    25    0.0   283     0.5   969.2    0.00 
 302   20:10   0.00   69.8    25    0.2   273     1.2   969.2    0.00 
 302   20:20   0.00   69.6    25    0.1   181     1.1   969.2    0.00 
 302   20:30   0.00   69.5    25    1.0   330     1.7   969.2    0.00 
 302   20:40   0.00   69.4    26    0.3   261     1.3   969.2    0.00 
 302   20:50   0.00   69.2    26    0.1   195     1.2   969.2    0.00 
 302   21:00   0.00   68.7    26    0.3   298     1.4   969.2    0.00 
 302   21:10   0.00   69.6    25    0.7   336     2.0   969.5    0.00 
 302   21:20   0.00   69.2    26    0.6   105     1.8   969.5    0.00 
 302   21:30   0.00   67.6    28    0.4   322     1.2   969.5    0.00 
 302   21:40   0.00   67.0    29    0.2   172     1.7   969.5    0.00 
 302   21:50   0.00   66.8    29    0.4   286     1.5   969.5    0.00 
 302   22:00   0.00   66.9    29    0.4   314     1.2   969.5    0.00 
 302   22:10   0.00   66.8    30    0.3   306     1.2   969.5    0.00 
 302   22:20   0.00   66.7    30    1.8   142     3.5   969.5    0.00 
 302   22:30   0.00   66.7    30    1.5   102     4.2   969.5    0.00 
 302   22:40   0.00   66.6    31    1.9    68     3.8   969.5    0.00 
 302   22:50   0.00   66.0    32    0.6   285     1.6   969.5    0.00 
 302   23:00   0.00   65.4    34    0.6   241     1.8   969.5    0.00 
 302   23:10   0.00   65.3    36    2.0   260     3.6   969.5    0.00 
 302   23:20   0.00   64.4    38    2.1   266     3.5   969.5    0.00 
 302   23:30   0.00   63.4    41    2.1   268     3.9   969.5    0.00 
 302   23:40   0.00   62.9    42    1.8   205     3.3   969.9    0.00 
 302   23:50   0.00   63.4    45    1.2   264     2.3   969.5    0.00 
 303    0:00   0.00   63.0    48    1.5   273     2.6   969.9    0.00 
 303    0:10   0.00   62.9    49    1.3   284     2.0   969.9    0.00 
 303    0:20   0.00   62.5    49    0.8   212     1.8   969.9    0.00 
 303    0:30   0.00   62.4    49    1.2   132     1.6   969.5    0.00 
 303    0:40   0.00   62.6    48    1.0   241     2.0   969.5    0.00 
 303    0:50   0.00   62.0    46    1.9   281     3.3   969.5    0.00 
 303    1:00   0.00   60.4    48    0.0     0     0.0   969.5    0.00 
 303    1:10   0.00   60.2    48    1.8   181     2.9   969.5    0.00 
 303    1:20   0.00   60.3    51    1.3   277     3.7   969.5    0.00 
 303    1:30   0.00   59.6    50    1.2   126     2.4   969.5    0.00 
 303    1:40   0.00   59.8    49    1.3   136     2.0   969.5    0.00 
 303    1:50   0.00   60.3    49    0.9   141     2.7   969.5    0.00 
 303    2:00   0.00   59.9    49    3.9   123     5.3   969.5    0.00 
 303    2:10   0.00   61.0    48    2.6   125     4.6   969.2    0.00 
 303    2:20   0.00   60.8    49    1.7   130     2.6   969.2    0.00 
 303    2:30   0.00   61.2    48    0.8   268     1.6   969.2    0.00 
 303    2:40   0.00   61.0    49    0.9   218     2.2   969.2    0.00 
 303    2:50   0.00   60.6    50    1.0   111     2.4   969.2    0.00 
 303    3:00   0.00   60.3    48    1.2   162     2.1   968.8    0.00 
 303    3:10   0.00   60.4    48    2.0   278     3.3   968.8    0.00 
 303    3:20   0.00   60.0    47    1.6   207     2.8   968.8    0.00 
 303    3:30   0.00   60.9    47    0.6   256     2.2   968.8    0.00 
 303    3:40   0.00   60.9    48    0.9   291     2.2   968.8    0.00 
 303    3:50   0.00   60.1    48    0.6   292     1.6   968.8    0.00 
 303    4:00   0.00   59.3    48    0.7   100     1.8   968.8    0.00 
 303    4:10   0.00   58.9    48    0.3   276     1.0   968.8    0.00 
 303    4:20   0.00   59.3    50    0.6   260     1.5   968.8    0.00 
 303    4:30   0.00   59.1    50    0.3   119     1.2   968.8    0.00 
 303    4:40   0.00   59.2    49    0.5   233     1.6   969.2    0.00 
 303    4:50   0.00   59.1    48    2.0   137     2.9   969.2    0.00 
 303    5:00   0.00   60.6    48    1.1   174     2.5   968.8    0.00 
 303    5:10   0.00   60.4    48    2.0   280     2.9   968.8    0.00 
 303    5:20   0.00   60.0    46    1.6   228     3.7   969.2    0.00 
 303    5:30   0.00   60.4    44    0.9   116     1.8   969.2    0.00 
 303    5:40   0.00   60.9    45    0.3   288     1.5   969.2    0.00 
 303    5:50   0.00   60.0    45    0.3   236     1.0   969.2    0.00 
 303    6:00   0.00   60.3    44    0.3   192     1.5   969.2    0.00 
 303    6:10   0.00   59.5    46    1.5   290     2.6   969.2    0.00 
 303    6:20   0.00   59.1    46    1.3   142     2.1   969.2    0.00 
 303    6:30   0.01   60.4    43    0.5   292     1.4   969.2    0.00 
 303    6:40   0.01   60.2    44    1.5   284     2.3   969.2    0.00 
 303    6:50   0.02   59.2    45    0.1    43     0.9   969.2    0.00 
 303    7:00   0.03   58.7    45    1.5   137     2.3   969.5    0.00 
 303    7:10   0.03   59.6    44    1.7   143     3.0   969.2    0.00 
 303    7:20   0.07   60.2    43    1.4   281     3.2   969.5    0.00 
 303    7:30   0.16   62.8    42    0.3   296     1.6   969.5    0.00 
 303    7:40   0.24   66.3    38    0.6   103     1.9   969.9    0.00 
 303    7:50   0.27   69.3    38    1.0   294     2.7   969.9    0.00 
 303    8:00   0.29   68.3    37    2.7   107     3.7   970.2    0.00 
 303    8:10   0.34   68.4    35    3.0   114     4.2   969.9    0.00 
 303    8:20   0.28   71.3    30    1.5    89     2.7   969.9    0.00 
 303    8:30   0.33   73.6    29    0.5   131     2.3   969.9    0.00 
 303    8:40   0.35   75.8    28    1.0   332     2.6   969.5    0.00 
 303    8:50   0.27   74.2    29    1.1    95     2.3   969.5    0.00 
 303    9:00   0.38   74.5    29    1.1    80     3.0   969.5    0.00 

Return to Stunt Ranch Reserve graphs page.


Western Regional Climate Center,wrcc@dri.edu